createdAt,value
2019-02-19T00:01:38.917Z,98305.27
2019-02-19T00:04:08.407Z,98312.38
2019-02-19T00:06:37.706Z,98311.54
2019-02-19T00:09:07.780Z,98315.80
2019-02-19T00:11:37.103Z,98326.03
2019-02-19T00:14:06.349Z,98319.78
2019-02-19T00:16:35.609Z,98316.28
2019-02-19T00:19:04.877Z,98319.14
2019-02-19T00:21:34.132Z,98305.98
2019-02-19T00:24:03.429Z,98316.06
2019-02-19T00:26:32.716Z,98317.23
2019-02-19T00:29:02.013Z,98313.11
2019-02-19T00:31:31.303Z,98309.98
2019-02-19T00:34:00.550Z,98311.37
2019-02-19T00:36:29.823Z,98310.41
2019-02-19T00:38:59.097Z,98307.25
2019-02-19T00:41:28.359Z,98317.02
2019-02-19T00:43:57.628Z,98323.14
2019-02-19T00:46:26.909Z,98320.72
2019-02-19T00:48:56.161Z,98321.06
2019-02-19T00:51:25.404Z,98328.50
2019-02-19T00:53:54.682Z,98325.80
2019-02-19T00:56:24.084Z,98330.77
2019-02-19T00:58:54.859Z,98332.81
2019-02-19T01:01:24.107Z,98331.70
2019-02-19T01:03:55.323Z,98337.69
2019-02-19T01:06:24.579Z,98337.52
2019-02-19T01:08:53.840Z,98338.97
2019-02-19T01:11:23.145Z,98339.63
2019-02-19T01:13:53.875Z,98341.00
2019-02-19T01:16:23.141Z,98343.16
2019-02-19T01:18:52.392Z,98337.26
2019-02-19T01:21:21.719Z,98334.77
2019-02-19T01:23:50.998Z,98337.26
2019-02-19T01:26:20.254Z,98341.14
2019-02-19T01:28:49.545Z,98343.14
2019-02-19T01:31:20.579Z,98342.81
2019-02-19T01:33:49.847Z,98344.80
2019-02-19T01:36:19.183Z,98337.43
2019-02-19T01:38:48.498Z,98341.88
2019-02-19T01:41:17.760Z,98334.28
2019-02-19T01:43:46.999Z,98337.52
2019-02-19T01:46:16.274Z,98332.45
2019-02-19T01:48:45.519Z,98319.39
2019-02-19T01:51:14.826Z,98325.81
2019-02-19T01:53:44.078Z,98330.05
2019-02-19T01:56:13.387Z,98325.89
2019-02-19T01:58:42.710Z,98322.88
2019-02-19T02:01:11.959Z,98318.70
2019-02-19T02:03:41.236Z,98317.27
2019-02-19T02:06:10.536Z,98317.55
2019-02-19T02:08:39.807Z,98320.02
2019-02-19T02:11:09.051Z,98313.75
2019-02-19T02:13:39.771Z,98305.59
2019-02-19T02:16:09.025Z,98307.41
2019-02-19T02:18:38.299Z,98312.04
2019-02-19T02:21:07.568Z,98306.72
2019-02-19T02:23:36.817Z,98300.52
2019-02-19T02:26:06.116Z,98300.18
2019-02-19T02:28:35.354Z,98298.97
2019-02-19T02:31:04.660Z,98295.91
2019-02-19T02:33:33.933Z,98291.43
2019-02-19T02:36:03.190Z,98294.93
2019-02-19T02:38:32.512Z,98294.88
2019-02-19T02:41:01.770Z,98297.98
2019-02-19T02:43:31.022Z,98295.28
2019-02-19T02:46:00.305Z,98296.77
2019-02-19T02:48:29.546Z,98291.66
2019-02-19T02:50:58.863Z,98294.41
2019-02-19T02:53:28.153Z,98291.92
2019-02-19T02:55:57.427Z,98301.67
2019-02-19T02:58:26.671Z,98303.06
2019-02-19T03:00:56.078Z,98289.91
2019-02-19T03:03:25.361Z,98293.25
2019-02-19T03:06:05.663Z,98291.13
2019-02-19T03:08:34.993Z,98293.16
2019-02-19T03:11:04.288Z,98294.25
2019-02-19T03:13:33.681Z,98297.62
2019-02-19T03:16:02.936Z,98299.27
2019-02-19T03:18:32.184Z,98291.73
2019-02-19T03:21:01.466Z,98290.33
2019-02-19T03:23:30.713Z,98291.08
2019-02-19T03:26:00.006Z,98290.98
2019-02-19T03:28:29.239Z,98299.74
2019-02-19T03:30:58.511Z,98296.02
2019-02-19T03:33:27.774Z,98304.42
2019-02-19T03:35:57.027Z,98302.25
2019-02-19T03:38:26.361Z,98306.14
2019-02-19T03:40:55.609Z,98307.10
2019-02-19T03:43:24.869Z,98306.84
2019-02-19T03:45:54.154Z,98309.77
2019-02-19T03:48:23.419Z,98305.25
2019-02-19T03:50:52.696Z,98313.31
2019-02-19T03:53:21.979Z,98314.47
2019-02-19T03:55:51.224Z,98318.14
2019-02-19T03:58:20.599Z,98317.03
2019-02-19T04:00:49.945Z,98317.98
2019-02-19T04:03:19.243Z,98323.36
2019-02-19T04:05:48.624Z,98321.10
2019-02-19T04:08:17.882Z,98327.43
2019-02-19T04:10:47.175Z,98324.56
2019-02-19T04:13:16.437Z,98326.02
2019-02-19T04:15:45.709Z,98333.12
2019-02-19T04:18:14.962Z,98328.02
2019-02-19T04:20:44.220Z,98331.59
2019-02-19T04:23:13.509Z,98333.16
2019-02-19T04:25:42.838Z,98341.96
2019-02-19T04:28:12.124Z,98329.78
2019-02-19T04:30:41.412Z,98336.34
2019-02-19T04:33:10.655Z,98328.12
2019-02-19T04:35:39.937Z,98328.77
2019-02-19T04:38:09.219Z,98331.74
2019-02-19T04:40:38.538Z,98337.09
2019-02-19T04:43:07.794Z,98332.88
2019-02-19T04:45:37.061Z,98333.11
2019-02-19T04:48:06.325Z,98331.19
2019-02-19T04:50:35.570Z,98335.22
2019-02-19T04:53:04.895Z,98326.72
2019-02-19T04:55:34.171Z,98328.27
2019-02-19T04:58:03.426Z,98327.73
2019-02-19T05:00:32.707Z,98329.66
2019-02-19T05:03:01.986Z,98331.55
2019-02-19T05:05:31.300Z,98332.95
2019-02-19T05:08:00.550Z,98336.06
2019-02-19T05:10:29.805Z,98335.89
2019-02-19T05:12:59.083Z,98336.59
2019-02-19T05:15:28.331Z,98336.02
2019-02-19T05:17:57.620Z,98345.05
2019-02-19T05:20:26.870Z,98338.91
2019-02-19T05:22:56.153Z,98344.69
2019-02-19T05:25:25.423Z,98344.05
2019-02-19T05:27:54.675Z,98349.10
2019-02-19T05:30:23.952Z,98349.08
2019-02-19T05:32:53.229Z,98350.97
2019-02-19T05:35:22.520Z,98347.73
2019-02-19T05:37:51.777Z,98337.80
2019-02-19T05:40:21.084Z,98348.00
2019-02-19T05:42:50.365Z,98339.40
2019-02-19T05:45:19.647Z,98345.86
2019-02-19T05:47:48.939Z,98341.98
2019-02-19T05:50:18.244Z,98345.44
2019-02-19T05:52:47.731Z,98343.44
2019-02-19T05:55:19.367Z,98352.44
2019-02-19T05:57:49.059Z,98346.89
2019-02-19T06:00:18.969Z,98350.45
2019-02-19T06:02:48.985Z,98348.72
2019-02-19T06:05:18.903Z,98348.57
2019-02-19T06:07:48.772Z,98357.88
2019-02-19T06:10:19.485Z,98355.58
2019-02-19T06:12:49.662Z,98356.95
2019-02-19T06:15:20.123Z,98357.69
2019-02-19T06:17:51.527Z,98358.36
2019-02-19T06:20:22.392Z,98359.80
2019-02-19T06:22:52.506Z,98364.49
2019-02-19T06:25:23.047Z,98366.10
2019-02-19T06:27:53.093Z,98370.14
2019-02-19T06:30:22.931Z,98371.41
2019-02-19T06:32:53.128Z,98380.57
2019-02-19T06:35:23.499Z,98383.60
2019-02-19T06:37:53.685Z,98380.05
2019-02-19T06:40:27.992Z,98379.86
2019-02-19T06:42:58.035Z,98389.41
2019-02-19T06:45:29.331Z,98392.63
2019-02-19T06:47:58.992Z,98393.67
2019-02-19T06:50:29.158Z,98394.53
2019-02-19T06:52:58.515Z,98395.86
2019-02-19T06:55:27.764Z,98397.69
2019-02-19T06:57:58.568Z,98398.25
2019-02-19T07:00:27.868Z,98400.83
2019-02-19T07:03:05.698Z,98397.99
2019-02-19T07:05:34.953Z,98404.28
2019-02-19T07:08:04.275Z,98409.11
2019-02-19T07:10:33.525Z,98409.51
2019-02-19T07:13:02.805Z,98401.59
2019-02-19T07:15:32.220Z,98409.87
2019-02-19T07:18:01.487Z,98412.96
2019-02-19T07:20:30.763Z,98411.42
2019-02-19T07:23:00.070Z,98412.77
2019-02-19T07:25:29.353Z,98407.69
2019-02-19T07:27:58.645Z,98412.66
2019-02-19T07:30:27.971Z,98412.84
2019-02-19T07:32:57.256Z,98408.60
2019-02-19T07:35:26.550Z,98407.94
2019-02-19T07:37:55.803Z,98416.02
2019-02-19T07:40:25.080Z,98411.53
2019-02-19T07:42:54.386Z,98411.98
2019-02-19T07:45:23.669Z,98413.72
2019-02-19T07:47:52.989Z,98412.77
2019-02-19T07:50:22.328Z,98407.16
2019-02-19T07:52:52.717Z,98414.63
2019-02-19T07:55:21.981Z,98408.92
2019-02-19T07:57:51.289Z,98407.17
2019-02-19T08:00:20.649Z,98411.27
2019-02-19T08:02:49.946Z,98411.47
2019-02-19T08:05:19.242Z,98413.55
2019-02-19T08:07:48.532Z,98411.66
2019-02-19T08:10:17.814Z,98414.88
2019-02-19T08:12:47.513Z,98415.63
2019-02-19T08:15:16.766Z,98406.70
2019-02-19T08:17:46.126Z,98414.59
2019-02-19T08:20:16.397Z,98416.76
2019-02-19T08:22:45.779Z,98418.00
2019-02-19T08:25:15.026Z,98420.09
2019-02-19T08:27:44.332Z,98420.91
2019-02-19T08:30:13.681Z,98425.18
2019-02-19T08:32:43.044Z,98425.23
2019-02-19T08:35:12.400Z,98421.62
2019-02-19T08:37:41.729Z,98425.02
2019-02-19T08:40:11.085Z,98428.12
2019-02-19T08:42:40.383Z,98419.19
2019-02-19T08:45:14.543Z,98420.42
2019-02-19T08:47:43.828Z,98423.01
2019-02-19T08:50:13.078Z,98416.14
2019-02-19T08:52:42.366Z,98418.89
2019-02-19T08:55:11.653Z,98409.30
2019-02-19T08:57:40.917Z,98410.30
2019-02-19T09:00:11.017Z,98412.30
2019-02-19T09:02:40.313Z,98412.62
2019-02-19T09:05:09.669Z,98412.11
2019-02-19T09:07:40.097Z,98405.41
2019-02-19T09:10:10.073Z,98407.02
2019-02-19T09:12:39.366Z,98412.97
2019-02-19T09:15:11.256Z,98413.16
2019-02-19T09:17:40.641Z,98411.52
2019-02-19T09:20:10.045Z,98405.06
2019-02-19T09:22:39.296Z,98403.02
2019-02-19T09:25:08.713Z,98413.77
2019-02-19T09:27:39.783Z,98423.30
2019-02-19T09:30:11.089Z,98413.20
2019-02-19T09:32:40.373Z,98418.80
2019-02-19T09:35:09.954Z,98432.54
2019-02-19T09:37:39.341Z,98434.86
2019-02-19T09:40:09.175Z,98432.98
2019-02-19T09:42:38.594Z,98426.55
2019-02-19T09:45:08.598Z,98429.33
2019-02-19T09:47:37.871Z,98426.61
2019-02-19T09:50:07.773Z,98429.25
2019-02-19T09:52:37.037Z,98424.59
2019-02-19T09:55:06.456Z,98419.48
2019-02-19T09:57:35.723Z,98415.05
2019-02-19T10:00:07.010Z,98429.25
2019-02-19T10:02:36.263Z,98445.63
2019-02-19T10:05:06.549Z,98444.00
2019-02-19T10:07:35.848Z,98440.28
2019-02-19T10:10:06.241Z,98446.52
2019-02-19T10:12:35.521Z,98450.88
2019-02-19T10:15:05.204Z,98442.47
2019-02-19T10:17:34.469Z,98449.97
2019-02-19T10:20:03.855Z,98447.22
2019-02-19T10:22:33.147Z,98451.41
2019-02-19T10:25:02.565Z,98449.27
2019-02-19T10:27:31.839Z,98455.56
2019-02-19T10:30:01.099Z,98455.84
2019-02-19T10:32:30.374Z,98459.59
2019-02-19T10:34:59.663Z,98470.70
2019-02-19T10:37:28.937Z,98466.28
2019-02-19T10:39:58.226Z,98460.96
2019-02-19T10:42:27.500Z,98465.23
2019-02-19T10:44:56.771Z,98462.94
2019-02-19T10:47:26.022Z,98464.30
2019-02-19T10:49:55.311Z,98451.77
2019-02-19T10:52:24.697Z,98456.34
2019-02-19T10:54:53.992Z,98457.72
2019-02-19T10:57:23.350Z,98460.89
2019-02-19T10:59:52.603Z,98452.70
2019-02-19T11:02:21.929Z,98464.65
2019-02-19T11:04:51.181Z,98453.14
2019-02-19T11:07:20.512Z,98452.13
2019-02-19T11:09:49.780Z,98457.02
2019-02-19T11:12:19.451Z,98451.30
2019-02-19T11:14:49.709Z,98437.22
2019-02-19T11:17:19.852Z,98442.25
2019-02-19T11:19:49.284Z,98444.06
2019-02-19T11:22:18.592Z,98433.58
2019-02-19T11:24:47.865Z,98434.50
2019-02-19T11:27:17.128Z,98443.78
2019-02-19T11:29:46.425Z,98432.77
2019-02-19T11:32:15.716Z,98431.97
2019-02-19T11:34:44.976Z,98429.25
2019-02-19T11:37:14.245Z,98426.31
2019-02-19T11:39:43.504Z,98432.66
2019-02-19T11:42:12.810Z,98433.79
2019-02-19T11:44:42.068Z,98421.86
2019-02-19T11:47:11.429Z,98426.11
2019-02-19T11:49:40.686Z,98428.02
2019-02-19T11:52:09.949Z,98437.80
2019-02-19T11:54:39.236Z,98437.87
2019-02-19T11:57:08.490Z,98441.40
2019-02-19T11:59:37.790Z,98434.12
2019-02-19T12:02:11.817Z,98432.52
2019-02-19T12:04:41.101Z,98427.73
2019-02-19T12:07:10.372Z,98436.34
2019-02-19T12:09:39.677Z,98443.03
2019-02-19T12:12:08.966Z,98437.48
2019-02-19T12:14:38.231Z,98431.13
2019-02-19T12:17:07.509Z,98421.05
2019-02-19T12:19:36.778Z,98425.27
2019-02-19T12:22:06.097Z,98429.13
2019-02-19T12:24:35.348Z,98409.16
2019-02-19T12:27:04.630Z,98422.94
2019-02-19T12:29:33.910Z,98427.88
2019-02-19T12:32:03.284Z,98428.11
2019-02-19T12:34:34.036Z,98424.92
2019-02-19T12:37:03.332Z,98424.47
2019-02-19T12:39:32.584Z,98419.69
2019-02-19T12:42:01.862Z,98421.28
2019-02-19T12:44:31.168Z,98414.81
2019-02-19T12:47:00.465Z,98416.19
2019-02-19T12:49:29.708Z,98409.47
2019-02-19T12:51:58.991Z,98413.34
2019-02-19T12:54:28.329Z,98422.45
2019-02-19T12:56:57.592Z,98410.14
2019-02-19T12:59:26.877Z,98405.61
2019-02-19T13:01:56.168Z,98397.08
2019-02-19T13:04:25.487Z,98396.16
2019-02-19T13:06:54.753Z,98405.25
2019-02-19T13:09:24.252Z,98409.47
2019-02-19T13:11:53.507Z,98405.83
2019-02-19T13:14:22.780Z,98408.58
2019-02-19T13:16:53.155Z,98405.03
2019-02-19T13:19:22.407Z,98405.61
2019-02-19T13:21:51.696Z,98411.39
2019-02-19T13:24:20.956Z,98409.23
2019-02-19T13:26:50.237Z,98417.20
2019-02-19T13:29:19.487Z,98413.10
2019-02-19T13:31:48.800Z,98413.77
2019-02-19T13:34:18.141Z,98410.30
2019-02-19T13:36:47.409Z,98419.86
2019-02-19T13:39:16.711Z,98418.22
2019-02-19T13:41:45.981Z,98428.89
2019-02-19T13:44:15.263Z,98422.31
2019-02-19T13:46:44.521Z,98426.14
2019-02-19T13:49:13.798Z,98424.04
2019-02-19T13:51:44.516Z,98422.44
2019-02-19T13:54:27.616Z,98422.87
2019-02-19T13:56:56.914Z,98430.35
2019-02-19T13:59:26.241Z,98436.73
2019-02-19T14:01:55.512Z,98430.34
2019-02-19T14:04:24.797Z,98423.27
2019-02-19T14:06:54.130Z,98425.80
2019-02-19T14:09:23.435Z,98431.20
2019-02-19T14:11:52.746Z,98435.95
2019-02-19T14:14:33.647Z,98434.81
2019-02-19T14:17:06.298Z,98444.41
2019-02-19T14:19:42.429Z,98442.48
2019-02-19T14:22:38.806Z,98438.63
2019-02-19T14:25:30.358Z,98440.63
2019-02-19T14:28:18.590Z,98444.43
2019-02-19T14:31:05.535Z,98449.17
2019-02-19T14:33:53.755Z,98447.31
2019-02-19T14:36:44.771Z,98453.47
2019-02-19T14:39:42.132Z,98450.44
2019-02-19T14:42:29.513Z,98445.55
2019-02-19T14:45:16.397Z,98453.89
2019-02-19T14:48:03.261Z,98438.93
2019-02-19T14:50:54.789Z,98453.23
2019-02-19T14:53:52.717Z,98460.47
2019-02-19T14:56:32.237Z,98460.23
2019-02-19T14:59:16.451Z,98460.00
2019-02-19T15:02:03.679Z,98458.31
2019-02-19T15:04:54.674Z,98452.01
2019-02-19T15:07:35.265Z,98457.39
2019-02-19T15:10:26.540Z,98463.20
2019-02-19T15:13:03.846Z,98467.05
2019-02-19T15:15:51.235Z,98472.59
2019-02-19T15:18:45.685Z,98470.56
2019-02-19T15:21:36.826Z,98471.54
2019-02-19T15:24:32.776Z,98474.88
2019-02-19T15:27:36.382Z,98469.89
2019-02-19T15:30:25.735Z,98467.31
2019-02-19T15:33:16.997Z,98460.33
2019-02-19T15:36:17.367Z,98458.78
2019-02-19T15:38:56.780Z,98455.67
2019-02-19T15:41:43.682Z,98455.47
2019-02-19T15:44:30.256Z,98463.38
2019-02-19T15:47:24.542Z,98462.48
2019-02-19T15:50:18.745Z,98463.01
2019-02-19T15:53:13.083Z,98462.95
2019-02-19T15:55:53.333Z,98470.36
2019-02-19T15:58:31.150Z,98469.96
2019-02-19T16:01:34.840Z,98470.66
2019-02-19T16:04:31.989Z,98467.59
2019-02-19T16:07:22.955Z,98459.32
2019-02-19T16:10:04.592Z,98461.48
2019-02-19T16:12:52.816Z,98465.30
2019-02-19T16:15:39.959Z,98463.78
2019-02-19T16:18:21.819Z,98465.31
2019-02-19T16:21:09.686Z,98468.26
2019-02-19T16:23:52.938Z,98469.70
2019-02-19T16:26:41.687Z,98472.58
2019-02-19T16:29:18.373Z,98477.55
2019-02-19T16:32:21.824Z,98475.95
2019-02-19T16:35:00.332Z,98484.22
2019-02-19T16:37:43.226Z,98482.33
2019-02-19T16:40:31.412Z,98483.21
2019-02-19T16:43:11.888Z,98486.28
2019-02-19T16:45:51.915Z,98489.88
2019-02-19T16:48:55.399Z,98492.67
2019-02-19T16:51:48.554Z,98486.59
2019-02-19T16:54:42.267Z,98490.70
2019-02-19T16:57:39.656Z,98492.62
2019-02-19T17:00:25.331Z,98497.58
2019-02-19T17:03:02.621Z,98494.77
2019-02-19T17:05:46.484Z,98500.53
2019-02-19T17:08:36.236Z,98500.20
2019-02-19T17:11:42.831Z,98503.49
2019-02-19T17:14:33.723Z,98508.59
2019-02-19T17:17:22.609Z,98511.69
2019-02-19T17:20:21.035Z,98520.78
2019-02-19T17:23:05.731Z,98517.58
2019-02-19T17:25:50.624Z,98510.06
2019-02-19T17:28:38.842Z,98517.02
2019-02-19T17:31:19.051Z,98522.97
2019-02-19T17:34:06.452Z,98526.55
2019-02-19T17:36:44.941Z,98535.18
2019-02-19T17:39:36.018Z,98532.59
2019-02-19T17:42:39.361Z,98542.47
2019-02-19T17:45:19.023Z,98541.52
2019-02-19T17:48:10.107Z,98534.37
2019-02-19T17:51:05.210Z,98543.00
2019-02-19T17:53:41.656Z,98546.33
2019-02-19T17:56:31.469Z,98547.19
2019-02-19T17:59:10.864Z,98543.50
2019-02-19T18:02:14.949Z,98559.92
2019-02-19T18:05:01.515Z,98549.95
2019-02-19T18:07:59.856Z,98546.76
2019-02-19T18:11:00.546Z,98552.91
2019-02-19T18:13:45.576Z,98553.63
2019-02-19T18:16:32.502Z,98561.36
2019-02-19T18:19:01.821Z,98559.51
2019-02-19T18:21:34.596Z,98562.17
2019-02-19T18:24:05.013Z,98564.02
2019-02-19T18:26:35.538Z,98566.29
2019-02-19T18:29:05.320Z,98570.00
2019-02-19T18:31:34.833Z,98568.53
2019-02-19T18:34:05.308Z,98566.57
2019-02-19T18:36:36.342Z,98573.59
2019-02-19T18:39:07.434Z,98575.31
2019-02-19T18:41:36.749Z,98581.72
2019-02-19T18:44:06.098Z,98577.05
2019-02-19T18:46:36.836Z,98572.48
2019-02-19T18:49:06.553Z,98572.62
2019-02-19T18:51:36.201Z,98571.98
2019-02-19T18:54:05.552Z,98573.34
2019-02-19T18:56:35.996Z,98572.20
2019-02-19T18:59:05.310Z,98569.50
2019-02-19T19:01:34.722Z,98569.64
2019-02-19T19:04:06.251Z,98576.05
2019-02-19T19:06:35.591Z,98573.31
2019-02-19T19:09:07.361Z,98576.41
2019-02-19T19:11:38.885Z,98569.95
2019-02-19T19:14:08.857Z,98566.28
2019-02-19T19:16:39.122Z,98575.31
2019-02-19T19:19:08.452Z,98573.06
2019-02-19T19:21:38.122Z,98572.06
2019-02-19T19:24:10.026Z,98576.17
2019-02-19T19:26:39.327Z,98577.11
2019-02-19T19:29:08.681Z,98586.04
2019-02-19T19:31:38.203Z,98589.33
2019-02-19T19:34:09.370Z,98595.77
2019-02-19T19:36:41.465Z,98596.25
2019-02-19T19:39:12.652Z,98597.98
2019-02-19T19:41:43.868Z,98605.47
2019-02-19T19:44:13.633Z,98604.64
2019-02-19T19:46:44.777Z,98610.75
2019-02-19T19:49:15.931Z,98613.66
2019-02-19T19:51:48.091Z,98615.95
2019-02-19T19:54:17.773Z,98618.06
2019-02-19T19:56:48.831Z,98614.14
2019-02-19T19:59:19.793Z,98615.48
2019-02-19T20:01:49.593Z,98616.07
2019-02-19T20:04:20.249Z,98613.44
2019-02-19T20:06:52.991Z,98612.25
2019-02-19T20:09:24.401Z,98612.09
2019-02-19T20:11:54.064Z,98619.25
2019-02-19T20:14:23.770Z,98624.37
2019-02-19T20:16:55.261Z,98620.05
2019-02-19T20:19:24.829Z,98621.86
2019-02-19T20:21:56.471Z,98624.57
2019-02-19T20:24:27.934Z,98625.58
2019-02-19T20:26:57.231Z,98628.29
2019-02-19T20:29:26.548Z,98631.59
2019-02-19T20:31:55.800Z,98637.14
2019-02-19T20:34:25.122Z,98640.89
2019-02-19T20:36:54.401Z,98641.48
2019-02-19T20:39:24.036Z,98640.16
2019-02-19T20:41:53.399Z,98641.91
2019-02-19T20:44:23.983Z,98646.22
2019-02-19T20:46:55.914Z,98644.45
2019-02-19T20:49:25.636Z,98648.64
2019-02-19T20:51:54.986Z,98647.93
2019-02-19T20:54:24.629Z,98642.13
2019-02-19T20:56:54.157Z,98649.53
2019-02-19T20:59:23.449Z,98657.41
2019-02-19T21:01:53.084Z,98654.10
2019-02-19T21:04:22.661Z,98651.73
2019-02-19T21:06:53.894Z,98647.08
2019-02-19T21:09:23.362Z,98648.81
2019-02-19T21:11:52.836Z,98652.64
2019-02-19T21:14:22.165Z,98655.52
2019-02-19T21:16:51.725Z,98661.18
2019-02-19T21:19:21.293Z,98662.10
2019-02-19T21:21:50.564Z,98658.16
2019-02-19T21:24:20.207Z,98654.39
2019-02-19T21:26:49.766Z,98658.55
2019-02-19T21:29:19.328Z,98656.30
2019-02-19T21:31:48.887Z,98661.12
2019-02-19T21:34:18.538Z,98655.86
2019-02-19T21:36:48.125Z,98654.69
2019-02-19T21:39:17.917Z,98656.62
2019-02-19T21:41:47.472Z,98661.27
2019-02-19T21:44:17.085Z,98666.27
2019-02-19T21:46:46.412Z,98663.64
2019-02-19T21:49:15.694Z,98666.59
2019-02-19T21:51:53.740Z,98665.05
2019-02-19T21:54:17.162Z,98664.98
2019-02-19T21:56:46.440Z,98664.28
2019-02-19T21:59:15.712Z,98667.69
2019-02-19T22:01:45.068Z,98667.70
2019-02-19T22:04:14.353Z,98663.10
2019-02-19T22:06:43.630Z,98664.36
2019-02-19T22:09:12.925Z,98668.83
2019-02-19T22:11:42.414Z,98668.77
2019-02-19T22:14:11.646Z,98666.64
2019-02-19T22:16:40.916Z,98667.58
2019-02-19T22:19:10.208Z,98668.54
2019-02-19T22:21:44.310Z,98672.97
2019-02-19T22:24:13.567Z,98669.89
2019-02-19T22:26:42.862Z,98668.95
2019-02-19T22:29:12.154Z,98669.47
2019-02-19T22:31:41.426Z,98664.38
2019-02-19T22:34:10.695Z,98659.91
2019-02-19T22:36:39.976Z,98666.77
2019-02-19T22:39:09.289Z,98655.70
2019-02-19T22:41:38.569Z,98658.38
2019-02-19T22:44:07.812Z,98664.59
2019-02-19T22:46:38.564Z,98662.66
2019-02-19T22:49:07.916Z,98665.16
2019-02-19T22:51:37.198Z,98669.98
2019-02-19T22:54:14.691Z,98664.81
2019-02-19T22:56:45.357Z,98672.36
2019-02-19T22:59:14.624Z,98662.34
2019-02-19T23:01:57.155Z,98669.12
2019-02-19T23:04:27.600Z,98661.30
2019-02-19T23:06:56.897Z,98670.50
2019-02-19T23:09:26.142Z,98671.64
2019-02-19T23:11:55.397Z,98671.66
2019-02-19T23:14:24.732Z,98674.52
2019-02-19T23:16:53.988Z,98676.25
2019-02-19T23:19:23.305Z,98677.43
2019-02-19T23:21:52.568Z,98681.05
2019-02-19T23:24:21.817Z,98680.44
2019-02-19T23:26:51.172Z,98687.03
2019-02-19T23:29:20.467Z,98689.00
2019-02-19T23:31:49.760Z,98691.58
2019-02-19T23:34:19.069Z,98690.92
2019-02-19T23:36:51.509Z,98686.66
2019-02-19T23:39:20.784Z,98690.50
2019-02-19T23:41:50.084Z,98692.37
2019-02-19T23:44:19.341Z,98684.70
2019-02-19T23:46:48.620Z,98686.09
2019-02-19T23:49:17.897Z,98691.90
2019-02-19T23:51:47.150Z,98689.13
2019-02-19T23:54:16.455Z,98692.69
2019-02-19T23:56:45.713Z,98691.02
2019-02-19T23:59:14.966Z,98690.25
